Time;durP1;ratioP1;P1;durP2;ratioP2;P2;SDS_P1;SDS_P2;PMS_P1;PMS_P2;Temp;Humidity;BMP_temperature;BMP_pressure;BME280_temperature;BME280_humidity;BME280_pressure;Samples;Min_cycle;Max_cycle;Signal;HPM_P1;HPM_P2
2022/10/30 00:02:13;;;;;;;18.75;6.35;;;;;;;14.85;86.93;101473.09;5077291;28;20032;-85
2022/10/30 00:04:39;;;;;;;19.03;6.40;;;;;;;14.79;87.07;101479.44;5094339;28;20115;-85
2022/10/30 00:07:04;;;;;;;17.60;6.10;;;;;;;14.79;87.43;101481.34;5060756;28;20082;-85
2022/10/30 00:09:29;;;;;;;20.60;6.63;;;;;;;14.76;87.73;101485.38;5094174;28;20039;-85
2022/10/30 00:11:55;;;;;;;13.27;6.07;;;;;;;14.71;87.94;101482.50;5060672;28;20065;-85
2022/10/30 00:14:20;;;;;;;17.38;6.78;;;;;;;14.70;87.88;101484.41;5094169;28;20456;-85
2022/10/30 00:16:46;;;;;;;12.93;5.87;;;;;;;14.65;88.30;101477.94;5076782;28;20582;-86
2022/10/30 00:19:11;;;;;;;22.03;6.20;;;;;;;14.60;88.31;101472.28;5094131;28;20028;-85
2022/10/30 00:21:37;;;;;;;15.87;5.53;;;;;;;14.57;88.67;101479.88;5077072;28;20028;-85
2022/10/30 00:24:02;;;;;;;19.30;6.00;;;;;;;14.56;88.77;101486.41;5060691;28;20032;-85
2022/10/30 00:26:28;;;;;;;18.97;6.03;;;;;;;14.55;88.98;101481.97;5076922;28;20312;-85
2022/10/30 00:28:55;;;;;;;12.57;6.30;;;;;;;14.52;88.82;101473.44;5076740;28;20463;-85
2022/10/30 00:31:21;;;;;;;13.80;6.10;;;;;;;14.46;89.36;101468.88;5093802;28;20123;-84
2022/10/30 00:33:50;;;;;;;17.33;6.35;;;;;;;14.43;89.61;101470.16;5094777;28;20024;-85
2022/10/30 00:36:16;;;;;;;15.23;6.73;;;;;;;14.36;89.65;101467.50;5093675;28;20119;-85
2022/10/30 00:38:41;;;;;;;16.13;6.15;;;;;;;14.34;90.03;101466.06;5076865;28;20126;-85
2022/10/30 00:41:13;;;;;;;17.47;6.13;;;;;;;14.28;90.14;101465.06;5094655;28;20028;-85
2022/10/30 00:43:39;;;;;;;15.18;6.38;;;;;;;14.23;90.45;101466.78;5095004;28;20047;-85
2022/10/30 00:46:10;;;;;;;15.07;6.30;;;;;;;14.18;91.05;101472.91;5076145;28;20080;-87
2022/10/30 00:48:36;;;;;;;14.45;6.63;;;;;;;14.18;91.06;101467.47;5093431;28;20028;-85
2022/10/30 00:51:04;;;;;;;28.33;6.68;;;;;;;14.16;91.35;101464.13;5076504;28;20038;-85
2022/10/30 00:53:29;;;;;;;14.00;6.47;;;;;;;14.13;91.32;101461.84;5093058;28;20093;-85
2022/10/30 00:56:00;;;;;;;19.63;6.20;;;;;;;14.10;91.36;101465.88;5076251;28;20028;-85
2022/10/30 00:58:33;;;;;;;15.20;6.60;;;;;;;14.07;91.89;101468.19;5093495;28;20020;-85
2022/10/30 01:01:01;;;;;;;14.68;5.90;;;;;;;14.05;92.16;101471.13;5093259;28;20081;-85
2022/10/30 01:03:28;;;;;;;17.00;6.90;;;;;;;14.00;91.86;101465.53;5094504;28;20055;-85
2022/10/30 01:05:57;;;;;;;22.50;6.85;;;;;;;13.98;92.45;101467.63;5094495;28;20027;-85
2022/10/30 01:08:22;;;;;;;17.13;6.50;;;;;;;13.97;92.76;101464.09;5093177;28;20043;-84
2022/10/30 01:10:48;;;;;;;17.67;6.60;;;;;;;13.98;92.74;101481.28;5093034;28;20024;-85
2022/10/30 01:13:16;;;;;;;15.40;5.93;;;;;;;13.98;92.82;101478.53;5093496;28;20036;-85
2022/10/30 01:15:53;;;;;;;15.38;5.75;;;;;;;13.99;92.69;101482.94;5076568;28;20028;-85
2022/10/30 01:18:41;;;;;;;14.35;6.18;;;;;;;13.99;92.43;101467.41;5092565;28;20087;-85
2022/10/30 01:21:10;;;;;;;16.57;6.20;;;;;;;13.99;92.62;101481.06;5093171;28;20043;-85
2022/10/30 01:24:13;;;;;;;16.70;6.95;;;;;;;13.97;92.55;101482.34;5093077;28;20130;-85
2022/10/30 01:27:01;;;;;;;11.77;5.85;;;;;;;13.94;92.81;101478.16;5092842;28;20089;-85
2022/10/30 01:29:38;;;;;;;16.42;6.47;;;;;;;13.95;93.35;101473.53;5093107;28;20035;-85
2022/10/30 01:32:18;;;;;;;15.80;6.55;;;;;;;13.92;92.93;101473.97;5092791;28;20503;-86
2022/10/30 01:34:55;;;;;;;12.37;5.80;;;;;;;13.89;93.36;101479.88;5093454;28;20032;-85
2022/10/30 01:37:32;;;;;;;17.05;6.55;;;;;;;13.84;93.72;101486.84;5092706;28;20031;-85
2022/10/30 01:40:10;;;;;;;14.13;6.60;;;;;;;13.82;93.80;101485.41;5092676;28;20059;-85
2022/10/30 01:42:56;;;;;;;16.63;6.30;;;;;;;13.81;93.36;101486.47;5092688;28;20043;-85
2022/10/30 01:45:37;;;;;;;17.67;6.22;;;;;;;13.81;94.28;101489.19;5092539;28;20224;-86
2022/10/30 01:48:36;;;;;;;12.67;6.03;;;;;;;13.80;93.70;101487.50;5092108;28;20093;-86
2022/10/30 01:51:23;;;;;;;17.88;5.97;;;;;;;13.76;93.71;101489.84;5094061;28;20032;-86
2022/10/30 01:54:19;;;;;;;21.50;6.88;;;;;;;13.73;94.21;101498.47;5092520;28;20036;-85
2022/10/30 01:57:04;;;;;;;16.73;6.22;;;;;;;13.69;94.22;101489.88;5093292;28;20039;-85
2022/10/30 01:59:46;;;;;;;14.10;6.45;;;;;;;13.67;94.69;101493.88;5092510;28;20036;-85
2022/10/30 02:02:12;;;;;;;15.50;6.63;;;;;;;13.63;95.06;101488.03;5092731;28;20074;-85
2022/10/30 02:04:38;;;;;;;14.85;6.72;;;;;;;13.64;95.83;101500.63;5096479;28;20024;-85
2022/10/30 02:07:04;;;;;;;12.93;6.40;;;;;;;13.60;96.09;101499.41;5096616;28;20489;-85
2022/10/30 02:09:30;;;;;;;13.80;5.85;;;;;;;13.62;96.02;101505.44;5080168;28;20028;-85
2022/10/30 02:12:00;;;;;;;15.07;6.90;;;;;;;13.62;96.28;101502.72;5097516;28;20388;-85
2022/10/30 02:14:30;;;;;;;14.82;6.68;;;;;;;13.62;95.88;101501.91;5096417;28;20055;-85
2022/10/30 02:16:59;;;;;;;20.88;7.07;;;;;;;13.63;96.22;101495.41;5095725;28;20024;-85
2022/10/30 02:19:24;;;;;;;17.10;6.57;;;;;;;13.63;96.20;101490.78;5096269;28;20027;-84
2022/10/30 02:21:51;;;;;;;18.60;6.83;;;;;;;13.61;96.19;101502.94;5079613;28;20042;-85
2022/10/30 02:24:16;;;;;;;17.20;6.57;;;;;;;13.61;96.51;101513.84;5079068;28;20032;-85
2022/10/30 02:26:42;;;;;;;13.40;6.60;;;;;;;13.61;96.50;101508.41;5097464;28;20031;-85
2022/10/30 02:29:07;;;;;;;11.73;6.90;;;;;;;13.60;96.64;101507.56;5062666;28;20032;-85
2022/10/30 02:31:33;;;;;;;15.77;6.60;;;;;;;13.59;96.51;101511.34;5096171;28;20024;-85
2022/10/30 02:33:58;;;;;;;15.30;6.70;;;;;;;13.59;96.42;101503.16;5097202;28;20392;-85
2022/10/30 02:36:24;;;;;;;16.07;5.90;;;;;;;13.57;96.78;101505.28;5097235;28;20032;-85
2022/10/30 02:38:49;;;;;;;16.10;6.00;;;;;;;13.56;96.98;101513.69;5096013;28;20016;-85
2022/10/30 02:41:15;;;;;;;18.85;6.47;;;;;;;13.50;96.93;101520.84;5063216;28;20059;-85
2022/10/30 02:43:40;;;;;;;14.20;6.53;;;;;;;13.48;96.95;101523.78;5095901;28;20032;-85
2022/10/30 02:46:05;;;;;;;17.07;6.60;;;;;;;13.43;97.36;101517.31;5095872;28;20048;-85
2022/10/30 02:48:31;;;;;;;14.80;6.60;;;;;;;13.43;97.52;101523.59;5095446;28;20531;-85
2022/10/30 02:51:03;;;;;;;17.93;6.30;;;;;;;13.43;97.43;101512.69;5078641;28;20049;-85
2022/10/30 02:53:30;;;;;;;19.70;7.25;;;;;;;13.40;97.71;101513.13;5095720;28;20491;-86
2022/10/30 02:55:55;;;;;;;18.02;6.40;;;;;;;13.36;97.63;101516.50;5096686;28;20028;-86
2022/10/30 02:58:21;;;;;;;13.80;6.47;;;;;;;13.32;98.17;101519.66;5095622;28;20388;-85
2022/10/30 03:00:46;;;;;;;18.63;6.80;;;;;;;13.26;98.42;101515.06;5096547;28;20032;-85
2022/10/30 03:03:11;;;;;;;20.10;6.77;;;;;;;13.27;98.25;101516.75;5097159;28;20319;-85
2022/10/30 03:05:37;;;;;;;16.30;7.00;;;;;;;13.23;98.65;101506.47;5095178;28;20028;-85
2022/10/30 03:08:02;;;;;;;19.27;6.80;;;;;;;13.20;99.10;101506.91;5078539;28;20032;-85
2022/10/30 03:10:28;;;;;;;11.13;6.43;;;;;;;13.20;99.39;101504.19;5096175;28;20032;-85
2022/10/30 03:12:53;;;;;;;18.98;7.15;;;;;;;13.16;99.16;101498.34;5078649;28;20486;-85
2022/10/30 03:15:19;;;;;;;16.10;6.90;;;;;;;13.14;98.74;101501.28;5061043;28;20028;-85
2022/10/30 03:17:44;;;;;;;13.97;6.30;;;;;;;13.14;99.63;101504.03;5094845;28;20137;-84
2022/10/30 03:20:11;;;;;;;19.00;6.50;;;;;;;13.15;99.68;101500.25;5061366;28;20385;-85
2022/10/30 03:22:36;;;;;;;19.48;6.93;;;;;;;13.14;99.58;101492.28;5095000;28;20455;-85
2022/10/30 03:25:02;;;;;;;14.03;6.60;;;;;;;13.12;99.64;101502.56;5077896;28;20063;-85
2022/10/30 03:27:27;;;;;;;15.93;6.77;;;;;;;13.15;99.97;101500.25;5078310;28;20539;-85
2022/10/30 03:29:53;;;;;;;15.45;6.32;;;;;;;13.14;100.00;101504.03;5061510;28;20426;-85
2022/10/30 03:32:18;;;;;;;13.53;6.27;;;;;;;13.16;100.00;101496.44;5061712;28;20066;-85
2022/10/30 03:34:44;;;;;;;13.87;5.93;;;;;;;13.15;100.00;101496.66;5094787;28;20399;-85
2022/10/30 03:37:09;;;;;;;22.10;6.43;;;;;;;13.18;100.00;101506.31;5095894;28;20436;-85
2022/10/30 03:39:35;;;;;;;20.53;6.07;;;;;;;13.16;100.00;101503.81;5078109;28;20032;-85
2022/10/30 03:42:00;;;;;;;14.27;6.13;;;;;;;13.15;100.00;101502.97;5061523;28;20049;-85
2022/10/30 03:44:25;;;;;;;17.67;6.63;;;;;;;13.12;100.00;101500.69;5095125;28;20460;-85
2022/10/30 03:46:51;;;;;;;19.42;6.57;;;;;;;13.11;100.00;101507.19;5060461;28;20052;-86
2022/10/30 03:49:16;;;;;;;15.30;6.07;;;;;;;13.11;100.00;101511.78;5094690;28;20024;-85
2022/10/30 03:51:42;;;;;;;17.17;6.53;;;;;;;13.10;100.00;101512.84;5077834;28;20034;-85
2022/10/30 03:54:07;;;;;;;16.27;6.97;;;;;;;13.11;100.00;101512.63;5077758;28;20468;-85
2022/10/30 03:56:32;;;;;;;18.33;6.20;;;;;;;13.13;100.00;101512.41;5078057;28;20537;-85
2022/10/30 03:58:58;;;;;;;17.00;6.90;;;;;;;13.10;100.00;101516.41;5078429;28;20031;-85
2022/10/30 04:01:26;;;;;;;15.45;6.57;;;;;;;13.08;100.00;101514.94;5095645;28;20495;-85
2022/10/30 04:03:51;;;;;;;19.20;6.93;;;;;;;13.07;100.00;101522.28;5077924;28;20064;-85
2022/10/30 04:06:17;;;;;;;20.10;6.88;;;;;;;13.01;100.00;101523.16;5077467;28;20059;-85
2022/10/30 04:08:42;;;;;;;14.50;6.33;;;;;;;13.02;100.00;101516.66;5077574;28;20067;-85
2022/10/30 04:11:11;;;;;;;19.03;6.77;;;;;;;13.00;100.00;101529.63;5077621;28;20472;-85
2022/10/30 04:13:36;;;;;;;18.85;6.90;;;;;;;12.96;100.00;101526.53;5094970;28;20032;-86
2022/10/30 04:16:02;;;;;;;11.67;6.43;;;;;;;12.93;100.00;101524.22;5077218;28;20058;-85
2022/10/30 04:18:27;;;;;;;15.45;6.70;;;;;;;12.92;100.00;101516.28;5093674;28;20482;-86
2022/10/30 04:20:53;;;;;;;17.60;6.77;;;;;;;12.93;100.00;101517.91;5077795;28;20044;-85
2022/10/30 04:23:20;;;;;;;15.85;6.72;;;;;;;12.90;100.00;101513.75;5093985;28;20075;-85
2022/10/30 04:25:46;;;;;;;18.27;6.88;;;;;;;12.87;100.00;101516.88;5094483;28;20032;-85
2022/10/30 04:28:12;;;;;;;22.13;7.00;;;;;;;12.86;100.00;101520.69;5076763;28;20546;-85
2022/10/30 04:30:38;;;;;;;15.95;6.57;;;;;;;12.86;100.00;101520.69;5094337;28;20353;-85
2022/10/30 04:33:06;;;;;;;12.70;6.50;;;;;;;12.85;100.00;101524.44;5077252;28;20032;-85
2022/10/30 04:35:35;;;;;;;17.53;7.13;;;;;;;12.84;100.00;101522.75;5094319;28;20036;-85
2022/10/30 04:38:06;;;;;;;15.55;6.65;;;;;;;12.85;100.00;101510.84;5093666;28;20379;-84
2022/10/30 04:40:34;;;;;;;15.10;6.38;;;;;;;12.85;100.00;101504.56;5095638;28;20024;-85
2022/10/30 04:43:00;;;;;;;14.95;6.45;;;;;;;12.85;100.00;101508.09;5094056;28;20020;-85
2022/10/30 04:45:25;;;;;;;16.15;6.95;;;;;;;12.82;100.00;101498.47;5093349;28;20036;-85
2022/10/30 04:47:52;;;;;;;16.47;6.70;;;;;;;12.84;100.00;101494.72;5092764;28;20503;-85
2022/10/30 04:50:18;;;;;;;20.15;6.57;;;;;;;12.82;100.00;101481.31;5092992;28;20047;-85
2022/10/30 04:52:43;;;;;;;14.40;7.00;;;;;;;12.84;100.00;101475.66;5093697;28;20024;-85
2022/10/30 04:55:09;;;;;;;14.53;6.33;;;;;;;12.84;100.00;101473.75;5094165;28;20380;-85
2022/10/30 04:57:35;;;;;;;19.30;6.90;;;;;;;12.86;100.00;101488.00;5092990;28;20028;-85
2022/10/30 05:00:05;;;;;;;19.98;7.15;;;;;;;12.87;100.00;101486.09;5093351;28;20172;-85
2022/10/30 05:02:30;;;;;;;15.20;7.43;;;;;;;12.88;100.00;101480.44;5093272;28;20479;-85
2022/10/30 05:04:58;;;;;;;13.10;6.10;;;;;;;12.94;100.00;101490.47;5059766;28;20032;-85
2022/10/30 05:07:24;;;;;;;15.75;7.25;;;;;;;12.92;100.00;101487.13;5076871;28;20415;-86
2022/10/30 05:09:49;;;;;;;16.17;6.70;;;;;;;12.90;100.00;101488.41;5076296;28;20028;-85
2022/10/30 05:12:15;;;;;;;18.60;7.30;;;;;;;12.88;100.00;101491.34;5093011;28;20130;-86
2022/10/30 05:14:41;;;;;;;18.20;6.53;;;;;;;12.90;100.00;101482.94;5059696;28;20074;-85
2022/10/30 05:17:06;;;;;;;14.83;6.70;;;;;;;12.88;100.00;101480.44;5092307;28;20032;-86
2022/10/30 05:19:32;;;;;;;14.63;6.37;;;;;;;12.89;100.00;101494.88;5076364;28;20476;-85
2022/10/30 05:21:57;;;;;;;13.50;6.35;;;;;;;12.85;100.00;101494.50;5093709;28;20081;-85
2022/10/30 05:24:22;;;;;;;19.13;7.87;;;;;;;12.79;100.00;101488.00;5092984;28;20490;-85
2022/10/30 05:26:48;;;;;;;19.00;6.80;;;;;;;12.77;100.00;101492.84;5094431;28;20456;-85
2022/10/30 05:29:13;;;;;;;16.00;7.53;;;;;;;12.75;100.00;101494.94;5075951;28;20480;-86
2022/10/30 05:31:39;;;;;;;19.87;7.50;;;;;;;12.70;100.00;101508.38;5092842;28;20035;-85
2022/10/30 05:34:05;;;;;;;19.70;6.60;;;;;;;12.67;100.00;101513.38;5093944;28;20027;-85
2022/10/30 05:36:30;;;;;;;18.50;7.00;;;;;;;12.62;100.00;101506.72;5092427;28;20038;-85
2022/10/30 05:38:56;;;;;;;16.52;7.47;;;;;;;12.56;100.00;101504.84;5092461;28;20032;-85
2022/10/30 05:41:21;;;;;;;14.83;6.60;;;;;;;12.50;100.00;101502.13;5092673;28;20027;-85
2022/10/30 05:43:46;;;;;;;15.97;6.90;;;;;;;12.46;100.00;101501.72;5075836;28;20032;-85
2022/10/30 05:46:12;;;;;;;19.00;6.77;;;;;;;12.40;100.00;101499.81;5092481;28;20089;-86
2022/10/30 05:48:39;;;;;;;14.38;6.55;;;;;;;12.34;100.00;101496.09;5075280;28;20067;-85
2022/10/30 05:51:05;;;;;;;16.50;7.18;;;;;;;12.32;100.00;101505.50;5075870;28;20044;-85
2022/10/30 05:53:31;;;;;;;20.87;7.33;;;;;;;12.25;100.00;101498.19;5076212;28;20024;-86
2022/10/30 05:55:57;;;;;;;20.10;7.10;;;;;;;12.21;100.00;101496.06;5075980;28;20032;-85
2022/10/30 05:58:23;;;;;;;16.85;7.18;;;;;;;12.17;100.00;101498.41;5093743;28;20032;-85
2022/10/30 06:00:48;;;;;;;15.20;6.80;;;;;;;12.13;100.00;101501.75;5092529;28;20142;-85
2022/10/30 06:03:14;;;;;;;14.73;6.47;;;;;;;12.11;100.00;101502.78;5092640;28;20033;-85
2022/10/30 06:05:39;;;;;;;13.23;7.13;;;;;;;12.08;100.00;101510.53;5092510;28;20527;-85
2022/10/30 06:08:07;;;;;;;18.67;7.93;;;;;;;12.00;100.00;101500.72;5093906;28;20036;-85
2022/10/30 06:10:36;;;;;;;15.23;6.83;;;;;;;11.97;100.00;101498.38;5092403;28;20468;-85
2022/10/30 06:13:04;;;;;;;19.98;7.72;;;;;;;11.90;100.00;101501.09;5076167;28;20035;-85
2022/10/30 06:15:31;;;;;;;19.08;7.28;;;;;;;11.90;100.00;101502.97;5092026;28;20067;-85
2022/10/30 06:17:59;;;;;;;22.58;7.45;;;;;;;11.84;100.00;101507.34;5091419;28;20518;-86
2022/10/30 06:20:27;;;;;;;19.17;7.15;;;;;;;11.81;100.00;101502.34;5075509;28;20476;-85
2022/10/30 06:23:04;;;;;;;19.03;7.30;;;;;;;11.80;100.00;101502.56;5092602;28;20166;-82
2022/10/30 06:25:32;;;;;;;21.67;7.03;;;;;;;11.77;100.00;101493.75;5093658;28;20111;-82
2022/10/30 06:27:58;;;;;;;16.55;7.18;;;;;;;11.78;100.00;101500.03;5093754;28;20031;-83
2022/10/30 06:30:25;;;;;;;20.05;7.78;;;;;;;11.75;100.00;101501.28;5094005;28;20480;-82
2022/10/30 06:32:56;;;;;;;13.70;6.67;;;;;;;11.74;100.00;101499.59;5092240;28;20039;-82
2022/10/30 06:35:21;;;;;;;13.55;6.75;;;;;;;11.73;100.00;101503.34;5092574;28;20456;-84
2022/10/30 06:37:47;;;;;;;19.87;7.60;;;;;;;11.72;100.00;101504.41;5092124;28;20028;-85
2022/10/30 06:40:14;;;;;;;13.52;7.47;;;;;;;11.70;100.00;101502.94;5091586;28;20032;-85
2022/10/30 06:42:48;;;;;;;15.60;7.18;;;;;;;11.71;100.00;101493.75;5093230;28;20357;-85
2022/10/30 06:45:15;;;;;;;16.60;7.32;;;;;;;11.72;100.00;101498.13;5092103;28;20105;-85
2022/10/30 06:47:43;;;;;;;16.55;7.45;;;;;;;11.74;100.00;101502.31;5090496;28;20070;-85
2022/10/30 06:50:12;;;;;;;22.67;7.27;;;;;;;11.76;100.00;101504.81;5076492;28;20028;-85
2022/10/30 06:52:37;;;;;;;15.93;7.57;;;;;;;11.79;100.00;101509.84;5095753;28;20529;-85
2022/10/30 06:55:03;;;;;;;18.25;7.32;;;;;;;11.75;100.00;101495.84;5097042;28;20040;-85
2022/10/30 06:57:29;;;;;;;20.25;7.50;;;;;;;11.76;100.00;101486.63;5095254;28;20590;-85
2022/10/30 06:59:54;;;;;;;14.63;7.00;;;;;;;11.83;100.00;101488.53;5095649;28;20035;-85
2022/10/30 07:02:20;;;;;;;19.70;7.17;;;;;;;11.87;100.00;101479.75;5096518;28;20020;-86
2022/10/30 07:04:45;;;;;;;18.37;8.10;;;;;;;11.95;100.00;101476.00;5095522;28;20465;-85
2022/10/30 07:07:11;;;;;;;18.00;7.50;;;;;;;12.01;100.00;101469.72;5095471;28;20031;-85
2022/10/30 07:09:37;;;;;;;16.27;7.80;;;;;;;12.08;100.00;101477.91;5095449;28;20027;-84
2022/10/30 07:12:02;;;;;;;16.97;8.07;;;;;;;12.11;100.00;101477.47;5095759;28;20028;-84
2022/10/30 07:14:28;;;;;;;19.90;8.43;;;;;;;12.16;100.00;101477.66;5095400;28;20020;-85
2022/10/30 07:16:56;;;;;;;16.00;7.07;;;;;;;12.21;100.00;101477.03;5061019;28;20044;-85
2022/10/30 07:19:22;;;;;;;14.85;6.55;;;;;;;12.27;100.00;101484.38;5095501;28;20068;-84
2022/10/30 07:21:47;;;;;;;16.27;8.13;;;;;;;12.31;100.00;101482.88;5096281;28;20107;-84
2022/10/30 07:24:13;;;;;;;17.30;7.00;;;;;;;12.36;100.00;101485.81;5078290;28;20028;-85
2022/10/30 07:26:38;;;;;;;15.43;7.40;;;;;;;12.41;100.00;101488.72;5095236;28;20035;-85
2022/10/30 07:29:04;;;;;;;27.97;7.47;;;;;;;12.45;100.00;101487.25;5095115;28;20495;-85
2022/10/30 07:31:30;;;;;;;15.57;7.23;;;;;;;12.49;100.00;101482.25;5095055;28;20046;-85
2022/10/30 07:33:55;;;;;;;11.30;7.00;;;;;;;12.55;100.00;101492.28;5095028;28;20418;-85
2022/10/30 07:36:21;;;;;;;14.50;7.07;;;;;;;12.61;100.00;101496.88;5078134;28;20039;-85
2022/10/30 07:38:47;;;;;;;15.77;7.32;;;;;;;12.66;100.00;101496.22;5094528;28;20452;-85
2022/10/30 07:41:13;;;;;;;18.58;7.50;;;;;;;12.70;100.00;101502.09;5094872;28;20036;-85
2022/10/30 07:43:38;;;;;;;13.63;6.73;;;;;;;12.74;100.00;101478.81;5094748;28;20032;-85
2022/10/30 07:46:04;;;;;;;19.27;7.13;;;;;;;12.82;100.00;101478.59;5078011;28;20121;-85
2022/10/30 07:48:29;;;;;;;16.85;6.90;;;;;;;12.89;100.00;101484.00;5077177;28;20052;-85
2022/10/30 07:50:55;;;;;;;17.97;7.50;;;;;;;12.94;100.00;101479.56;5060945;28;20063;-85
2022/10/30 07:53:21;;;;;;;15.50;7.70;;;;;;;13.01;100.00;101473.25;5094663;28;20530;-84
2022/10/30 07:55:46;;;;;;;15.17;7.40;;;;;;;13.09;100.00;101487.47;5077787;28;20028;-84
2022/10/30 07:58:12;;;;;;;18.07;7.40;;;;;;;13.16;100.00;101485.56;5094404;28;20023;-85
2022/10/30 08:00:37;;;;;;;17.73;7.27;;;;;;;13.24;100.00;101489.09;5094157;28;20036;-85
2022/10/30 08:03:03;;;;;;;13.63;6.82;;;;;;;13.28;100.00;101488.44;5096030;28;20113;-84
2022/10/30 08:05:28;;;;;;;17.27;6.97;;;;;;;13.38;100.00;101489.91;5094015;28;20089;-84
2022/10/30 08:07:54;;;;;;;16.50;7.23;;;;;;;13.44;100.00;101487.13;5094521;28;20058;-85
2022/10/30 08:10:19;;;;;;;15.47;7.30;;;;;;;13.52;100.00;101483.28;5060724;28;20672;-85
2022/10/30 08:12:46;;;;;;;16.07;7.47;;;;;;;13.60;100.00;101476.75;5094665;28;20043;-84
2022/10/30 08:15:12;;;;;;;14.68;6.88;;;;;;;13.67;100.00;101475.66;5060887;28;20035;-85
2022/10/30 08:17:42;;;;;;;15.40;6.83;;;;;;;13.75;100.00;101469.09;5094925;28;20028;-85
2022/10/30 08:20:08;;;;;;;17.48;7.00;;;;;;;13.81;100.00;101464.63;5094064;28;20032;-85
2022/10/30 08:22:33;;;;;;;12.75;6.78;;;;;;;13.93;100.00;101470.22;5077138;28;20028;-85
2022/10/30 08:24:59;;;;;;;19.70;8.83;;;;;;;14.03;100.00;101474.09;5094209;28;20028;-85
2022/10/30 08:27:24;;;;;;;20.77;7.30;;;;;;;14.18;99.54;101486.56;5094130;28;20478;-85
2022/10/30 08:29:50;;;;;;;21.55;6.57;;;;;;;14.27;99.50;101498.03;5060212;28;20384;-85
2022/10/30 08:32:15;;;;;;;13.93;7.10;;;;;;;14.33;98.98;101492.50;5076962;28;20096;-84
2022/10/30 08:34:41;;;;;;;11.93;6.30;;;;;;;14.42;98.55;101490.31;5093754;28;20032;-85
2022/10/30 08:37:06;;;;;;;19.07;6.63;;;;;;;14.50;98.25;101486.47;5076874;28;20021;-85
2022/10/30 08:39:32;;;;;;;16.43;6.60;;;;;;;14.61;97.77;101484.88;5093659;28;20774;-85
2022/10/30 08:41:58;;;;;;;12.90;6.50;;;;;;;14.70;97.20;101478.94;5093610;28;20032;-85
2022/10/30 08:44:24;;;;;;;15.82;6.28;;;;;;;14.79;96.26;101479.44;5093585;28;20107;-85
2022/10/30 08:46:49;;;;;;;13.60;5.90;;;;;;;14.88;95.90;101482.69;5076428;28;20139;-85
2022/10/30 08:49:15;;;;;;;19.23;6.43;;;;;;;14.98;95.38;101480.25;5076388;28;20040;-85
2022/10/30 08:51:40;;;;;;;17.40;6.47;;;;;;;15.11;94.94;101490.19;5059963;28;20028;-85
2022/10/30 08:54:08;;;;;;;20.20;6.23;;;;;;;15.24;94.46;101484.56;5076909;28;20036;-85
2022/10/30 08:56:33;;;;;;;26.42;6.82;;;;;;;15.37;92.63;101489.00;5093613;28;20373;-85
2022/10/30 08:58:59;;;;;;;17.17;6.17;;;;;;;15.46;92.16;101492.25;5076054;28;20028;-85
2022/10/30 09:01:24;;;;;;;15.73;6.13;;;;;;;15.57;90.39;101487.88;5093440;28;20024;-85
2022/10/30 09:03:50;;;;;;;13.03;6.27;;;;;;;15.68;89.78;101487.09;5076308;28;20376;-85
2022/10/30 09:06:15;;;;;;;13.07;6.13;;;;;;;15.83;89.07;101489.41;5093498;28;20448;-85
2022/10/30 09:08:41;;;;;;;12.53;6.13;;;;;;;16.04;89.00;101473.50;5094492;28;20483;-85
2022/10/30 09:11:06;;;;;;;18.43;6.77;;;;;;;16.30;87.43;101464.81;5094448;28;20032;-85
2022/10/30 09:13:31;;;;;;;13.83;5.63;;;;;;;16.60;86.78;101465.75;5093628;28;20032;-85
2022/10/30 09:16:01;;;;;;;15.77;5.60;;;;;;;16.91;85.85;101464.50;5076294;28;20761;-84
2022/10/30 09:18:27;;;;;;;17.55;6.32;;;;;;;17.23;83.78;101458.56;5092583;28;20028;-85
2022/10/30 09:20:52;;;;;;;14.23;5.03;;;;;;;17.58;82.25;101462.19;5076462;28;20051;-85
2022/10/30 09:23:18;;;;;;;12.02;5.40;;;;;;;17.90;80.78;101450.69;5093909;28;20024;-85
2022/10/30 09:25:43;;;;;;;12.83;5.43;;;;;;;18.17;79.92;101459.06;5092941;28;20101;-85
2022/10/30 09:28:09;;;;;;;17.63;5.70;;;;;;;18.30;78.70;101466.94;5076303;28;20032;-85
2022/10/30 09:30:34;;;;;;;12.90;5.93;;;;;;;18.47;77.10;101455.09;5092601;28;20502;-85
2022/10/30 09:33:03;;;;;;;17.03;6.17;;;;;;;18.54;76.37;101461.25;5092759;28;20262;-86
2022/10/30 09:35:29;;;;;;;18.13;4.90;;;;;;;18.53;75.39;101454.91;5093741;28;20036;-85
2022/10/30 09:37:55;;;;;;;13.93;5.03;;;;;;;18.51;75.72;101461.75;5092680;28;20089;-85
2022/10/30 09:40:28;;;;;;;12.50;4.93;;;;;;;18.43;76.20;101468.50;5092646;28;20060;-85
2022/10/30 09:43:00;;;;;;;18.80;5.85;;;;;;;18.34;76.00;101473.59;5094434;28;20040;-85
2022/10/30 09:45:44;;;;;;;12.35;5.63;;;;;;;18.21;75.79;101473.97;5092567;28;20373;-85
2022/10/30 09:48:21;;;;;;;11.38;5.00;;;;;;;18.12;76.42;101483.72;5091898;28;20047;-85
2022/10/30 09:51:16;;;;;;;16.93;5.63;;;;;;;18.12;77.43;101490.03;5092531;28;20032;-85
2022/10/30 09:54:07;;;;;;;13.68;5.97;;;;;;;18.24;77.38;101498.19;5093708;28;20095;-85
2022/10/30 09:56:44;;;;;;;17.85;5.85;;;;;;;18.22;76.26;101498.44;5092324;28;20119;-85
2022/10/30 09:59:16;;;;;;;14.73;5.05;;;;;;;18.18;76.02;101497.25;5092570;28;20027;-85
2022/10/30 10:01:51;;;;;;;12.93;5.10;;;;;;;18.16;75.61;101502.19;5092796;28;20086;-85
2022/10/30 10:04:35;;;;;;;16.17;5.33;;;;;;;18.13;76.52;101499.94;5093111;28;20093;-85
2022/10/30 10:07:09;;;;;;;16.95;5.40;;;;;;;18.08;76.00;101497.09;5092423;28;20529;-86
2022/10/30 10:09:36;;;;;;;11.30;5.20;;;;;;;18.08;76.77;101488.84;5092963;28;20123;-86
2022/10/30 10:12:45;;;;;;;14.10;5.53;;;;;;;18.22;78.14;101483.88;5092399;28;20115;-86
2022/10/30 10:15:35;;;;;;;18.02;5.85;;;;;;;18.20;75.71;101481.38;5053981;28;20127;-86
2022/10/30 10:18:03;;;;;;;13.13;5.20;;;;;;;18.15;76.39;101481.28;5052869;28;20058;-86
2022/10/30 10:20:42;;;;;;;17.08;5.80;;;;;;;18.30;76.01;101480.69;5078576;28;20048;-85
2022/10/30 10:23:17;;;;;;;12.65;5.43;;;;;;;18.28;75.35;101480.13;5092538;28;20063;-85
2022/10/30 10:25:51;;;;;;;14.27;5.60;;;;;;;18.26;75.74;101484.19;5096453;28;20035;-86
2022/10/30 10:28:34;;;;;;;13.88;5.78;;;;;;;18.46;75.70;101475.44;5096417;28;20035;-86
2022/10/30 10:31:29;;;;;;;16.40;5.83;;;;;;;18.57;75.13;101468.97;5096396;28;20043;-86
2022/10/30 10:34:29;;;;;;;17.05;5.30;;;;;;;18.75;74.40;101479.66;5095083;28;20051;-86
2022/10/30 10:37:22;;;;;;;15.85;5.40;;;;;;;18.97;74.09;101472.53;5095936;28;20024;-86
2022/10/30 10:40:06;;;;;;;13.82;5.38;;;;;;;19.08;73.00;101464.16;5095727;28;20035;-86
2022/10/30 10:42:43;;;;;;;19.70;5.82;;;;;;;19.22;71.72;101461.84;5095875;28;20115;-86
2022/10/30 10:45:34;;;;;;;13.27;5.17;;;;;;;19.31;71.19;101466.84;5095823;28;20460;-86
2022/10/30 10:48:25;;;;;;;14.32;5.13;;;;;;;19.45;71.94;101471.69;5095066;28;20052;-86
2022/10/30 10:51:21;;;;;;;12.75;6.00;;;;;;;19.79;70.20;101470.66;5086775;28;20036;-86
2022/10/30 10:54:04;;;;;;;15.25;5.10;;;;;;;20.49;67.88;101468.69;5095868;28;20077;-86
2022/10/30 10:56:41;;;;;;;18.33;5.20;;;;;;;22.05;64.42;101470.75;5095607;28;20043;-86
2022/10/30 10:59:19;;;;;;;15.37;4.80;;;;;;;23.42;58.09;101467.78;5096902;28;20106;-86
2022/10/30 11:02:06;;;;;;;15.05;5.25;;;;;;;24.27;59.23;101476.78;5095697;28;20032;-86
2022/10/30 11:04:38;;;;;;;16.65;5.50;;;;;;;26.41;51.03;101464.00;5095381;28;20119;-86
2022/10/30 11:07:27;;;;;;;15.75;5.50;;;;;;;28.47;49.51;101465.59;5096550;28;20063;-86
2022/10/30 11:09:56;;;;;;;14.60;5.47;;;;;;;29.95;42.46;101454.91;5096630;28;20024;-85
2022/10/30 11:12:33;;;;;;;10.83;5.00;;;;;;;30.68;42.07;101452.00;5078540;28;20115;-85
2022/10/30 11:15:09;;;;;;;14.35;5.05;;;;;;;31.59;38.00;101454.31;5095003;28;20038;-86
2022/10/30 11:17:43;;;;;;;16.40;5.45;;;;;;;32.48;35.96;101444.59;5094746;28;20119;-87
2022/10/30 11:20:50;;;;;;;11.52;5.28;;;;;;;34.04;38.38;101441.53;5095145;28;20036;-87
2022/10/30 11:23:41;;;;;;;17.42;5.80;;;;;;;35.08;35.20;101429.13;5081022;28;20494;-87
2022/10/30 11:26:16;;;;;;;15.27;5.40;;;;;;;35.08;32.76;101426.31;5094814;28;20024;-86